Weather at Miami International Airport

Public forecast

Using degrees Fahrenheit for public forecast. Weather courtesy of forecast.io.

Current aviation weather report (METAR) for Miami International Airport

Retrieved 2020/10/30 06:53 UTC (24 minutes ago):

KMIA 300653Z 00000KT 10SM SCT015 SCT023 27/25 A2993 RMK AO2 SLP135 T02670250

Aviation forecast (TAF) for Miami International Airport

Retrieved 2020/10/30 06:06 UTC (1 hour ago):

TAF KMIA 300603Z 3006/3112 VRB03KT P6SM SCT015 SCT025 FM301800 11008KT P6SM SHRA SCT019 BKN035 FM302200 04006KT P6SM BKN035 FM310100 04005KT P6SM SCT035